createdAt,value
2019-04-03T00:00:24.046Z,9.60
2019-04-03T00:02:55.047Z,9.50
2019-04-03T00:05:27.586Z,9.50
2019-04-03T00:07:58.256Z,9.40
2019-04-03T00:10:28.813Z,9.40
2019-04-03T00:13:00.168Z,9.40
2019-04-03T00:15:31.095Z,9.30
2019-04-03T00:18:02.593Z,9.30
2019-04-03T00:20:33.989Z,9.30
2019-04-03T00:23:04.859Z,9.30
2019-04-03T00:25:36.195Z,9.30
2019-04-03T00:28:07.164Z,9.30
2019-04-03T00:30:39.095Z,9.30
2019-04-03T00:33:10.120Z,9.40
2019-04-03T00:35:41.237Z,9.40
2019-04-03T00:38:12.038Z,9.40
2019-04-03T00:40:43.111Z,9.40
2019-04-03T00:43:14.015Z,9.50
2019-04-03T00:45:45.095Z,9.40
2019-04-03T00:48:16.307Z,9.50
2019-04-03T00:50:47.640Z,9.40
2019-04-03T00:53:18.474Z,9.50
2019-04-03T00:55:49.355Z,9.50
2019-04-03T00:58:42.224Z,9.50
2019-04-03T01:01:13.211Z,9.40
2019-04-03T01:03:44.103Z,9.40
2019-04-03T01:06:14.852Z,9.40
2019-04-03T01:08:47.201Z,9.40
2019-04-03T01:11:18.655Z,9.30
2019-04-03T01:13:49.803Z,9.30
2019-04-03T01:16:21.248Z,9.30
2019-04-03T01:18:52.108Z,9.30
2019-04-03T01:21:23.551Z,9.20
2019-04-03T01:23:54.047Z,9.30
2019-04-03T01:26:24.624Z,9.20
2019-04-03T01:28:55.095Z,9.20
2019-04-03T01:31:25.569Z,9.20
2019-04-03T01:33:56.027Z,9.20
2019-04-03T01:36:26.740Z,9.20
2019-04-03T01:38:57.556Z,9.20
2019-04-03T01:41:28.398Z,9.20
2019-04-03T01:44:00.593Z,9.20
2019-04-03T01:46:31.678Z,9.10
2019-04-03T01:49:02.784Z,9.10
2019-04-03T01:51:34.024Z,9.20
2019-04-03T01:54:05.073Z,9.20
2019-04-03T01:56:36.322Z,9.20
2019-04-03T01:59:07.729Z,9.20
2019-04-03T02:01:39.092Z,9.20
2019-04-03T02:04:13.030Z,9.20
2019-04-03T02:06:44.336Z,9.10
2019-04-03T02:09:16.344Z,9.10
2019-04-03T02:11:49.081Z,9.10
2019-04-03T02:14:21.649Z,9.10
2019-04-03T02:16:53.445Z,9.10
2019-04-03T02:19:26.113Z,9.00
2019-04-03T02:21:59.056Z,9.00
2019-04-03T02:24:31.857Z,9.00
2019-04-03T02:27:03.547Z,9.00
2019-04-03T02:29:35.221Z,8.90
2019-04-03T02:32:06.169Z,8.90
2019-04-03T02:34:36.983Z,8.90
2019-04-03T02:37:08.285Z,8.90
2019-04-03T02:39:39.108Z,8.80
2019-04-03T02:42:10.125Z,8.80
2019-04-03T02:44:40.788Z,8.80
2019-04-03T02:47:11.950Z,8.80
2019-04-03T02:49:43.796Z,8.80
2019-04-03T02:52:14.952Z,8.80
2019-04-03T02:54:46.090Z,8.70
2019-04-03T02:57:18.191Z,8.70
2019-04-03T02:59:49.212Z,8.70
2019-04-03T03:02:20.278Z,8.70
2019-04-03T03:04:53.729Z,8.60
2019-04-03T03:07:23.932Z,8.60
2019-04-03T03:09:55.325Z,8.60
2019-04-03T03:12:27.636Z,8.50
2019-04-03T03:14:59.540Z,8.50
2019-04-03T03:17:30.928Z,8.50
2019-04-03T03:20:06.966Z,8.50
2019-04-03T03:22:35.869Z,8.40
2019-04-03T03:25:07.152Z,8.40
2019-04-03T03:27:40.769Z,8.40
2019-04-03T03:30:30.919Z,8.40
2019-04-03T03:32:44.040Z,8.40
2019-04-03T03:35:20.513Z,8.30
2019-04-03T03:37:48.006Z,8.30
2019-04-03T03:40:19.560Z,8.30
2019-04-03T03:42:51.363Z,8.30
2019-04-03T03:45:22.626Z,8.20
2019-04-03T03:47:53.517Z,8.20
2019-04-03T03:50:26.142Z,8.20
2019-04-03T03:52:57.129Z,8.20
2019-04-03T03:55:28.664Z,8.20
2019-04-03T03:57:59.437Z,8.20
2019-04-03T04:00:30.922Z,8.10
2019-04-03T04:03:02.070Z,8.10
2019-04-03T04:05:33.090Z,8.10
2019-04-03T04:08:09.377Z,8.10
2019-04-03T04:10:37.292Z,8.10
2019-04-03T04:13:12.881Z,8.00
2019-04-03T04:15:40.465Z,8.00
2019-04-03T04:18:13.811Z,8.00
2019-04-03T04:20:44.448Z,8.00
2019-04-03T04:23:15.713Z,8.00
2019-04-03T04:25:46.813Z,7.90
2019-04-03T04:28:18.308Z,7.90
2019-04-03T04:30:49.334Z,7.90
2019-04-03T04:33:20.822Z,7.90
2019-04-03T04:35:52.836Z,7.90
2019-04-03T04:38:26.181Z,7.90
2019-04-03T04:40:56.964Z,7.90
2019-04-03T04:43:28.031Z,7.80
2019-04-03T04:45:59.400Z,7.90
2019-04-03T04:48:30.908Z,7.90
2019-04-03T04:51:02.540Z,7.90
2019-04-03T04:53:33.483Z,7.90
2019-04-03T04:56:06.497Z,7.90
2019-04-03T04:58:37.831Z,7.90
2019-04-03T05:01:08.531Z,7.90
2019-04-03T05:03:39.880Z,8.00
2019-04-03T05:06:10.741Z,8.00
2019-04-03T05:08:41.606Z,8.00
2019-04-03T05:11:12.071Z,8.10
2019-04-03T05:13:42.925Z,8.10
2019-04-03T05:16:14.067Z,8.20
2019-04-03T05:18:45.605Z,8.30
2019-04-03T05:21:17.701Z,8.40
2019-04-03T05:23:48.451Z,8.40
2019-04-03T05:26:21.563Z,8.50
2019-04-03T05:28:57.075Z,8.60
2019-04-03T05:31:25.349Z,8.60
2019-04-03T05:33:56.056Z,8.70
2019-04-03T05:36:27.065Z,8.70
2019-04-03T05:38:57.752Z,8.80
2019-04-03T05:41:28.715Z,8.80
2019-04-03T05:44:01.878Z,8.80
2019-04-03T05:46:32.454Z,8.90
2019-04-03T05:49:03.936Z,8.90
2019-04-03T05:51:34.848Z,9.00
2019-04-03T05:54:07.288Z,9.10
2019-04-03T05:56:38.579Z,9.10
2019-04-03T05:59:09.438Z,9.20
2019-04-03T06:01:42.667Z,9.30
2019-04-03T06:04:13.240Z,9.40
2019-04-03T06:06:47.098Z,9.50
2019-04-03T06:09:17.116Z,9.60
2019-04-03T06:11:48.527Z,9.70
2019-04-03T06:14:19.567Z,9.70
2019-04-03T06:16:52.003Z,9.80
2019-04-03T06:19:22.853Z,9.80
2019-04-03T06:21:53.959Z,9.90
2019-04-03T06:24:25.026Z,9.90
2019-04-03T06:26:56.619Z,9.90
2019-04-03T06:29:28.203Z,10.00
2019-04-03T06:31:59.614Z,10.10
2019-04-03T06:34:30.619Z,10.20
2019-04-03T06:37:01.723Z,10.30
2019-04-03T06:39:33.552Z,10.40
2019-04-03T06:42:04.668Z,10.50
2019-04-03T06:44:36.073Z,10.60
2019-04-03T06:47:07.620Z,10.70
2019-04-03T06:49:40.340Z,10.90
2019-04-03T06:52:11.167Z,10.90
2019-04-03T06:54:44.216Z,11.10
2019-04-03T06:57:14.611Z,11.20
2019-04-03T06:59:47.900Z,11.30
2019-04-03T07:02:18.420Z,11.50
2019-04-03T07:04:50.213Z,11.60
2019-04-03T07:07:32.640Z,11.70
2019-04-03T07:09:53.675Z,11.90
2019-04-03T07:12:24.976Z,12.00
2019-04-03T07:14:57.263Z,12.10
2019-04-03T07:17:29.776Z,12.30
2019-04-03T07:20:12.585Z,12.50
2019-04-03T07:22:34.095Z,12.50
2019-04-03T07:25:05.795Z,12.40
2019-04-03T07:27:37.462Z,12.50
2019-04-03T07:30:09.646Z,12.60
2019-04-03T07:32:41.159Z,12.70
2019-04-03T07:35:12.112Z,12.60
2019-04-03T07:37:43.754Z,12.60
2019-04-03T07:40:14.763Z,12.70
2019-04-03T07:42:46.236Z,12.80
2019-04-03T07:45:17.767Z,13.00
2019-04-03T07:47:48.815Z,13.10
2019-04-03T07:50:19.931Z,13.30
2019-04-03T07:52:51.059Z,13.50
2019-04-03T07:55:24.219Z,13.60
2019-04-03T07:57:57.722Z,13.60
2019-04-03T08:00:29.645Z,13.70
2019-04-03T08:03:00.332Z,13.80
2019-04-03T08:05:31.694Z,13.80
2019-04-03T08:08:03.005Z,14.10
2019-04-03T08:10:37.250Z,14.20
2019-04-03T08:13:07.907Z,14.40
2019-04-03T08:15:39.100Z,14.60
2019-04-03T08:18:10.714Z,14.70
2019-04-03T08:20:41.731Z,14.80
2019-04-03T08:23:12.832Z,14.90
2019-04-03T08:25:47.162Z,15.10
2019-04-03T08:28:16.968Z,15.20
2019-04-03T08:30:48.000Z,15.40
2019-04-03T08:33:25.550Z,15.50
2019-04-03T08:35:51.905Z,15.70
2019-04-03T08:38:22.838Z,15.90
2019-04-03T08:40:53.663Z,15.80
2019-04-03T08:43:24.547Z,16.00
2019-04-03T08:45:55.392Z,16.20
2019-04-03T08:48:26.488Z,16.20
2019-04-03T08:50:58.517Z,16.30
2019-04-03T08:53:30.019Z,16.50
2019-04-03T08:56:00.811Z,16.80
2019-04-03T08:58:32.581Z,16.60
2019-04-03T09:01:05.815Z,16.80
2019-04-03T09:03:36.991Z,17.00
2019-04-03T09:06:07.976Z,17.30
2019-04-03T09:08:38.921Z,17.30
2019-04-03T09:11:09.807Z,17.50
2019-04-03T09:13:40.977Z,17.70
2019-04-03T09:16:12.046Z,17.90
2019-04-03T09:18:43.075Z,17.90
2019-04-03T09:21:15.032Z,17.70
2019-04-03T09:23:47.856Z,17.70
2019-04-03T09:26:19.304Z,17.80
2019-04-03T09:28:49.957Z,17.60
2019-04-03T09:31:20.899Z,17.60
2019-04-03T09:33:51.687Z,17.80
2019-04-03T09:36:22.831Z,17.80
2019-04-03T09:38:54.328Z,17.70
2019-04-03T09:41:25.195Z,17.70
2019-04-03T09:43:56.171Z,17.50
2019-04-03T09:46:26.920Z,17.20
2019-04-03T09:48:57.620Z,17.00
2019-04-03T09:51:29.091Z,16.60
2019-04-03T09:54:01.158Z,16.30
2019-04-03T09:56:32.595Z,16.10
2019-04-03T09:59:06.677Z,15.90
2019-04-03T10:01:36.413Z,16.00
2019-04-03T10:04:07.948Z,16.00
2019-04-03T10:06:39.512Z,16.10
2019-04-03T10:09:12.113Z,16.20
2019-04-03T10:11:42.861Z,16.40
2019-04-03T10:14:14.259Z,16.70
2019-04-03T10:16:44.830Z,16.80
2019-04-03T10:19:16.033Z,17.00
2019-04-03T10:21:46.832Z,16.90
2019-04-03T10:24:18.136Z,16.80
2019-04-03T10:26:49.534Z,16.70
2019-04-03T10:29:20.219Z,16.80
2019-04-03T10:31:53.130Z,16.80
2019-04-03T10:34:24.116Z,16.90
2019-04-03T10:36:54.892Z,17.20
2019-04-03T10:39:26.660Z,17.40
2019-04-03T10:41:58.126Z,17.50
2019-04-03T10:44:30.885Z,17.90
2019-04-03T10:47:01.660Z,18.30
2019-04-03T10:49:33.080Z,18.50
2019-04-03T10:52:04.131Z,18.80
2019-04-03T10:54:37.872Z,19.00
2019-04-03T10:57:08.504Z,19.40
2019-04-03T10:59:39.455Z,19.50
2019-04-03T11:02:10.347Z,19.60
2019-04-03T11:04:41.183Z,19.90
2019-04-03T11:07:12.391Z,20.30
2019-04-03T11:09:43.333Z,20.20
2019-04-03T11:12:14.756Z,20.70
2019-04-03T11:14:46.016Z,20.90
2019-04-03T11:17:18.148Z,21.20
2019-04-03T11:19:48.995Z,21.10
2019-04-03T11:22:20.388Z,21.00
2019-04-03T11:24:52.006Z,21.40
2019-04-03T11:27:29.059Z,21.00
2019-04-03T11:29:56.482Z,21.00
2019-04-03T11:32:28.251Z,20.90
2019-04-03T11:34:59.663Z,20.50
2019-04-03T11:37:33.005Z,20.50
2019-04-03T11:40:05.617Z,20.10
2019-04-03T11:42:38.450Z,19.70
2019-04-03T11:45:10.656Z,18.90
2019-04-03T11:47:43.233Z,18.30
2019-04-03T11:50:15.007Z,17.90
2019-04-03T11:52:46.540Z,17.40
2019-04-03T11:55:17.851Z,17.10
2019-04-03T11:57:49.619Z,16.70
2019-04-03T12:00:25.469Z,16.90
2019-04-03T12:02:56.936Z,16.90
2019-04-03T12:05:28.549Z,17.10
2019-04-03T12:07:59.540Z,17.30
2019-04-03T12:10:32.655Z,17.30
2019-04-03T12:13:04.715Z,17.30
2019-04-03T12:15:35.928Z,17.50
2019-04-03T12:18:06.823Z,17.90
2019-04-03T12:20:43.741Z,18.30
2019-04-03T12:23:12.727Z,18.70
2019-04-03T12:25:44.055Z,19.00
2019-04-03T12:28:17.418Z,19.30
2019-04-03T12:30:47.387Z,19.50
2019-04-03T12:33:20.180Z,19.70
2019-04-03T12:35:51.754Z,20.10
2019-04-03T12:38:23.415Z,20.30
2019-04-03T12:40:54.622Z,20.40
2019-04-03T12:43:25.751Z,20.30
2019-04-03T12:45:58.832Z,20.40
2019-04-03T12:48:29.265Z,20.60
2019-04-03T12:51:00.548Z,20.60
2019-04-03T12:53:31.704Z,20.50
2019-04-03T12:56:02.907Z,20.60
2019-04-03T12:58:34.040Z,20.60
2019-04-03T13:01:07.116Z,20.60
2019-04-03T13:03:37.840Z,20.50
2019-04-03T13:06:10.936Z,20.80
2019-04-03T13:08:42.324Z,20.70
2019-04-03T13:11:13.431Z,20.50
2019-04-03T13:13:44.778Z,20.20
2019-04-03T13:16:15.833Z,20.20
2019-04-03T13:18:46.879Z,20.30
2019-04-03T13:21:18.481Z,20.20
2019-04-03T13:23:49.995Z,20.20
2019-04-03T13:26:24.080Z,20.30
2019-04-03T13:28:53.468Z,20.30
2019-04-03T13:31:25.206Z,20.50
2019-04-03T13:33:55.951Z,20.40
2019-04-03T13:36:26.766Z,20.50
2019-04-03T13:39:00.283Z,20.30
2019-04-03T13:41:33.310Z,20.40
2019-04-03T13:44:03.267Z,20.30
2019-04-03T13:46:36.578Z,20.00
2019-04-03T13:49:08.271Z,19.80
2019-04-03T13:51:39.576Z,19.40
2019-04-03T13:54:10.572Z,19.40
2019-04-03T13:56:43.101Z,19.50
2019-04-03T13:59:14.679Z,19.70
2019-04-03T14:01:45.532Z,19.90
2019-04-03T14:04:16.327Z,20.10
2019-04-03T14:06:47.298Z,20.30
2019-04-03T14:09:18.433Z,20.50
2019-04-03T14:11:49.527Z,20.70
2019-04-03T14:14:21.199Z,20.80
2019-04-03T14:16:52.505Z,21.10
2019-04-03T14:19:25.128Z,21.30
2019-04-03T14:21:58.780Z,21.50
2019-04-03T14:24:39.342Z,21.60
2019-04-03T14:27:03.312Z,21.40
2019-04-03T14:29:34.977Z,21.30
2019-04-03T14:32:05.967Z,20.80
2019-04-03T14:34:39.465Z,20.60
2019-04-03T14:37:09.674Z,20.60
2019-04-03T14:39:41.823Z,20.40
2019-04-03T14:42:12.982Z,20.20
2019-04-03T14:44:45.974Z,19.60
2019-04-03T14:47:17.056Z,19.60
2019-04-03T14:49:49.791Z,19.50
2019-04-03T14:52:20.692Z,19.30
2019-04-03T14:54:51.653Z,19.20
2019-04-03T14:57:23.935Z,18.90
2019-04-03T14:59:55.634Z,18.80
2019-04-03T15:02:26.818Z,18.50
2019-04-03T15:04:59.063Z,18.40
2019-04-03T15:07:29.955Z,18.30
2019-04-03T15:10:01.223Z,18.10
2019-04-03T15:12:32.373Z,18.10
2019-04-03T15:15:03.618Z,18.00
2019-04-03T15:17:37.245Z,17.90
2019-04-03T15:20:07.657Z,17.80
2019-04-03T15:22:39.315Z,17.70
2019-04-03T15:25:10.904Z,17.60
2019-04-03T15:27:41.918Z,17.60
2019-04-03T15:30:12.743Z,17.60
2019-04-03T15:32:44.618Z,17.60
2019-04-03T15:35:15.921Z,17.50
2019-04-03T15:37:46.852Z,17.50
2019-04-03T15:40:17.876Z,17.50
2019-04-03T15:42:49.583Z,17.40
2019-04-03T15:45:22.427Z,17.30
2019-04-03T15:47:56.391Z,17.30
2019-04-03T15:50:28.026Z,17.30
2019-04-03T15:53:00.170Z,17.20
2019-04-03T15:55:31.980Z,17.20
2019-04-03T15:58:02.876Z,17.30
2019-04-03T16:00:35.661Z,17.20
2019-04-03T16:03:06.548Z,17.10
2019-04-03T16:05:37.387Z,17.10
2019-04-03T16:08:11.697Z,17.10
2019-04-03T16:10:41.556Z,17.10
2019-04-03T16:13:15.022Z,17.00
2019-04-03T16:15:46.646Z,16.90
2019-04-03T16:18:20.007Z,16.90
2019-04-03T16:20:50.796Z,16.80
2019-04-03T16:23:21.791Z,16.80
2019-04-03T16:25:53.357Z,16.70
2019-04-03T16:28:26.479Z,16.70
2019-04-03T16:30:57.980Z,16.60
2019-04-03T16:33:29.006Z,16.50
2019-04-03T16:36:00.228Z,16.50
2019-04-03T16:38:31.349Z,16.40
2019-04-03T16:41:02.435Z,16.40
2019-04-03T16:43:33.453Z,16.30
2019-04-03T16:46:05.792Z,16.30
2019-04-03T16:48:39.802Z,16.20
2019-04-03T16:51:11.224Z,16.10
2019-04-03T16:53:42.379Z,16.00
2019-04-03T16:56:14.128Z,15.90
2019-04-03T16:58:45.355Z,15.80
2019-04-03T17:01:16.348Z,15.70
2019-04-03T17:03:48.048Z,15.70
2019-04-03T17:06:19.749Z,15.50
2019-04-03T17:08:50.787Z,15.50
2019-04-03T17:11:21.871Z,15.40
2019-04-03T17:13:52.895Z,15.30
2019-04-03T17:16:24.139Z,15.20
2019-04-03T17:18:55.327Z,15.10
2019-04-03T17:21:27.654Z,15.00
2019-04-03T17:23:59.543Z,14.90
2019-04-03T17:26:30.747Z,14.80
2019-04-03T17:29:05.190Z,14.70
2019-04-03T17:31:35.273Z,14.70
2019-04-03T17:34:07.539Z,14.60
2019-04-03T17:36:39.054Z,14.50
2019-04-03T17:39:10.327Z,14.50
2019-04-03T17:41:41.751Z,14.50
2019-04-03T17:44:13.981Z,14.40
2019-04-03T17:46:45.115Z,14.40
2019-04-03T17:49:16.140Z,14.30
2019-04-03T17:51:47.144Z,14.30
2019-04-03T17:54:18.220Z,14.20
2019-04-03T17:56:49.363Z,14.30
2019-04-03T17:59:20.075Z,14.20
2019-04-03T18:01:52.410Z,14.20
2019-04-03T18:04:23.887Z,14.10
2019-04-03T18:06:57.318Z,14.10
2019-04-03T18:09:28.094Z,14.10
2019-04-03T18:11:58.924Z,14.00
2019-04-03T18:14:31.236Z,13.90
2019-04-03T18:17:03.393Z,13.80
2019-04-03T18:19:37.591Z,13.70
2019-04-03T18:22:06.875Z,13.70
2019-04-03T18:24:38.011Z,13.60
2019-04-03T18:27:08.783Z,13.50
2019-04-03T18:29:40.183Z,13.50
2019-04-03T18:32:11.448Z,13.40
2019-04-03T18:34:42.463Z,13.30
2019-04-03T18:37:14.007Z,13.30
2019-04-03T18:39:45.191Z,13.30
2019-04-03T18:42:19.166Z,13.20
2019-04-03T18:44:50.299Z,13.20
2019-04-03T18:47:21.144Z,13.20
2019-04-03T18:49:52.166Z,13.20
2019-04-03T18:52:23.487Z,13.10
2019-04-03T18:54:54.259Z,13.20
2019-04-03T18:57:25.125Z,13.20
2019-04-03T18:59:56.482Z,13.20
2019-04-03T19:02:29.500Z,13.20
2019-04-03T19:05:02.391Z,13.20
2019-04-03T19:07:34.255Z,13.20
2019-04-03T19:10:07.374Z,13.20
2019-04-03T19:12:38.944Z,13.30
2019-04-03T19:15:10.412Z,13.20
2019-04-03T19:17:41.563Z,13.20
2019-04-03T19:20:12.727Z,13.30
2019-04-03T19:22:43.898Z,13.30
2019-04-03T19:25:14.751Z,13.30
2019-04-03T19:27:46.143Z,13.20
2019-04-03T19:30:17.259Z,13.20
2019-04-03T19:32:48.509Z,13.20
2019-04-03T19:35:20.149Z,13.20
2019-04-03T19:37:51.072Z,13.20
2019-04-03T19:40:22.203Z,13.20
2019-04-03T19:42:52.875Z,13.10
2019-04-03T19:45:23.957Z,13.10
2019-04-03T19:47:55.489Z,13.10
2019-04-03T19:50:26.523Z,13.10
2019-04-03T19:52:57.371Z,13.10
2019-04-03T19:55:28.696Z,13.10
2019-04-03T19:57:59.987Z,13.00
2019-04-03T20:00:33.042Z,13.00
2019-04-03T20:03:04.675Z,13.00
2019-04-03T20:05:35.567Z,13.00
2019-04-03T20:08:06.653Z,13.00
2019-04-03T20:10:38.075Z,13.00
2019-04-03T20:13:09.533Z,13.10
2019-04-03T20:15:40.668Z,13.10
2019-04-03T20:18:12.055Z,13.10
2019-04-03T20:20:43.372Z,13.10
2019-04-03T20:23:14.952Z,13.00
2019-04-03T20:25:45.999Z,13.10
2019-04-03T20:28:18.700Z,13.10
2019-04-03T20:30:49.645Z,13.10
2019-04-03T20:33:21.372Z,13.00
2019-04-03T20:35:52.283Z,13.00
2019-04-03T20:38:23.097Z,13.00
2019-04-03T20:40:54.200Z,12.90
2019-04-03T20:43:26.807Z,13.00
2019-04-03T20:45:58.395Z,12.90
2019-04-03T20:48:29.431Z,13.00
2019-04-03T20:51:00.447Z,13.00
2019-04-03T20:53:31.431Z,13.00
2019-04-03T20:56:02.896Z,13.00
2019-04-03T20:58:35.580Z,13.10
2019-04-03T21:01:07.199Z,13.10
2019-04-03T21:03:38.165Z,13.10
2019-04-03T21:06:09.267Z,13.20
2019-04-03T21:08:41.752Z,13.20
2019-04-03T21:11:12.925Z,13.30
2019-04-03T21:13:44.952Z,13.30
2019-04-03T21:16:16.925Z,13.30
2019-04-03T21:18:51.202Z,13.30
2019-04-03T21:21:21.468Z,13.30
2019-04-03T21:23:52.855Z,13.40
2019-04-03T21:26:24.351Z,13.50
2019-04-03T21:28:55.799Z,13.50
2019-04-03T21:31:26.709Z,13.50
2019-04-03T21:33:57.743Z,13.60
2019-04-03T21:36:28.587Z,13.60
2019-04-03T21:39:00.098Z,13.60
2019-04-03T21:41:31.516Z,13.60
2019-04-03T21:44:03.127Z,13.70
2019-04-03T21:46:34.105Z,13.70
2019-04-03T21:49:04.884Z,13.70
2019-04-03T21:51:35.799Z,13.70
2019-04-03T21:54:07.099Z,13.70
2019-04-03T21:56:38.111Z,13.60
2019-04-03T21:59:10.924Z,13.60
2019-04-03T22:01:42.176Z,13.60
2019-04-03T22:04:13.388Z,13.50
2019-04-03T22:06:44.809Z,13.40
2019-04-03T22:09:16.223Z,13.30
2019-04-03T22:11:47.060Z,13.30
2019-04-03T22:14:18.443Z,13.20
2019-04-03T22:16:50.876Z,13.10
2019-04-03T22:19:22.319Z,13.10
2019-04-03T22:21:53.224Z,13.00
2019-04-03T22:24:24.321Z,12.90
2019-04-03T22:26:55.811Z,12.90
2019-04-03T22:29:26.624Z,12.80
2019-04-03T22:31:57.940Z,12.80
2019-04-03T22:34:30.018Z,12.80
2019-04-03T22:37:03.774Z,12.80
2019-04-03T22:39:34.912Z,12.70
2019-04-03T22:42:06.080Z,12.70
2019-04-03T22:44:37.495Z,12.70
2019-04-03T22:47:08.980Z,12.60
2019-04-03T22:49:41.222Z,12.60
2019-04-03T22:52:12.151Z,12.60
2019-04-03T22:54:43.855Z,12.60
2019-04-03T22:57:15.668Z,12.60
2019-04-03T22:59:47.087Z,12.60
2019-04-03T23:02:17.876Z,12.40
2019-04-03T23:04:48.767Z,12.40
2019-04-03T23:07:20.863Z,12.40
2019-04-03T23:09:52.908Z,12.20
2019-04-03T23:12:23.754Z,12.20
2019-04-03T23:14:55.184Z,12.20
2019-04-03T23:17:26.322Z,12.10
2019-04-03T23:19:57.763Z,12.10
2019-04-03T23:22:28.632Z,12.00
2019-04-03T23:25:00.157Z,11.90
2019-04-03T23:27:32.889Z,11.90
2019-04-03T23:30:04.152Z,11.80
2019-04-03T23:32:35.104Z,11.80
2019-04-03T23:35:06.134Z,11.70
2019-04-03T23:37:38.571Z,11.70
2019-04-03T23:40:09.396Z,11.60
2019-04-03T23:42:40.559Z,11.50
2019-04-03T23:45:12.866Z,11.50
2019-04-03T23:47:46.705Z,11.50
2019-04-03T23:50:16.392Z,11.40
2019-04-03T23:52:47.831Z,11.40
2019-04-03T23:55:19.251Z,11.30
2019-04-03T23:57:50.841Z,11.30
